Brazoria County Airport
KLBX : now visible

Airfield :











YOU CAN JOIN US ON...

 
LOGIN :

Register | Disclaimer

   EN    FR    IT 

 









Legend :    VFR   Marginal VFR   IFR   Intensive IFR   Very Intensive IFR
Visi :
Ceiling :
>= 8 km
>= 3000ft
5 to 8 km
1000 to 3000 ft
1500m to 5 km
500 to 1000 ft
800 to 1500m
200 to 500 ft
< 800m
< 200 ft
Symbols :   Thunderstorms  Fog  Heavy snow  Heavy precipitations  Wind > 20 kt






- Airport Elevation : 25 ft


KLBX - Brazoria County

CURRENT METAR :
  • 281953Z AUTO VRB05KT 10SM CLR 23/15 A2993 RMK AO2 SLP135 T02280150

EXPIRED METARs :
  • 281853Z AUTO 10006KT 10SM CLR 23/14 A2996 RMK AO2 SLP144 T02330139
  • 281753Z AUTO 09006KT 10SM CLR 22/13 A2999 RMK AO2 SLP155 T02220133 10228 20078 58011

TAF KLBX
Valid from the 28 at 18:00 until the 29 at 18:00 UTC


281720Z 2818/2918 10006KT P6SM SKC
FM282000 13007KT P6SM SKC
FM290400 13007KT P6SM SCT006 BKN013
FM290700 14008KT 6SM BR VCSH BKN006
FM291100 18009KT 3SM BR VCSH OVC006
FM291600 19013KT 5SM BR VCSH BKN007
KZHU FIR / North America



MET'MAP, your aeronautical weather chart ! - Copyright ORBIFLY December 2007 - Disclaimer

ORBIFLY MET'MAP TEAM :

Programming & Development : Alexandra Zaïnal
Original concept : Baudouin d'Aumeries
Technical & hardware support : Manuel Goepfert
Assistance : Marc-Olivier Méhu




SOURCES & CREDITS :

   NOAA       Earth
Advisory